sensor_id;sensor_type;location;lat;lon;timestamp;pressure;altitude;pressure_sealevel;temperature;humidity
30636;BME280;17400;52.392;9.750;2023-03-13T00:01:11;99794.38;;;8.25;100.00
30636;BME280;17400;52.392;9.750;2023-03-13T00:03:39;99786.47;;;8.23;100.00
30636;BME280;17400;52.392;9.750;2023-03-13T00:06:08;99789.19;;;8.23;100.00
30636;BME280;17400;52.392;9.750;2023-03-13T00:08:36;99779.84;;;8.26;100.00
30636;BME280;17400;52.392;9.750;2023-03-13T00:11:04;99779.22;;;8.24;100.00
30636;BME280;17400;52.392;9.750;2023-03-13T00:13:33;99769.06;;;8.26;100.00
30636;BME280;17400;52.392;9.750;2023-03-13T00:16:01;99769.88;;;8.26;100.00
30636;BME280;17400;52.392;9.750;2023-03-13T00:18:29;99764.06;;;8.29;100.00
30636;BME280;17400;52.392;9.750;2023-03-13T00:20:57;99763.25;;;8.29;100.00
30636;BME280;17400;52.392;9.750;2023-03-13T00:23:27;99756.81;;;8.30;100.00
30636;BME280;17400;52.392;9.750;2023-03-13T00:25:56;99751.44;;;8.30;100.00
30636;BME280;17400;52.392;9.750;2023-03-13T00:28:26;99759.75;;;8.28;100.00
30636;BME280;17400;52.392;9.750;2023-03-13T00:31:01;99759.75;;;8.28;100.00
30636;BME280;17400;52.392;9.750;2023-03-13T00:33:30;99757.84;;;8.29;100.00
30636;BME280;17400;52.392;9.750;2023-03-13T00:35:59;99755.81;;;8.31;100.00
30636;BME280;17400;52.392;9.750;2023-03-13T00:38:29;99745.00;;;8.31;100.00
30636;BME280;17400;52.392;9.750;2023-03-13T00:41:00;99741.91;;;8.34;100.00
30636;BME280;17400;52.392;9.750;2023-03-13T00:43:30;99741.91;;;8.34;100.00
30636;BME280;17400;52.392;9.750;2023-03-13T00:45:58;99735.47;;;8.35;100.00
30636;BME280;17400;52.392;9.750;2023-03-13T00:48:26;99738.16;;;8.35;100.00
30636;BME280;17400;52.392;9.750;2023-03-13T00:50:54;99742.53;;;8.36;100.00
30636;BME280;17400;52.392;9.750;2023-03-13T00:53:22;99732.56;;;8.37;100.00
30636;BME280;17400;52.392;9.750;2023-03-13T00:55:53;99721.56;;;8.38;100.00
30636;BME280;17400;52.392;9.750;2023-03-13T00:58:22;99726.97;;;8.38;100.00
30636;BME280;17400;52.392;9.750;2023-03-13T01:00:50;99708.06;;;8.38;100.00
30636;BME280;17400;52.392;9.750;2023-03-13T01:03:19;99720.53;;;8.39;100.00
30636;BME280;17400;52.392;9.750;2023-03-13T01:05:55;99706.84;;;8.41;100.00
30636;BME280;17400;52.392;9.750;2023-03-13T01:08:23;99706.19;;;8.39;100.00
30636;BME280;17400;52.392;9.750;2023-03-13T01:10:58;99706.03;;;8.40;100.00
30636;BME280;17400;52.392;9.750;2023-03-13T01:13:26;99696.88;;;8.41;100.00
30636;BME280;17400;52.392;9.750;2023-03-13T01:15:54;99699.38;;;8.43;100.00
30636;BME280;17400;52.392;9.750;2023-03-13T01:18:22;99687.38;;;8.45;100.00
30636;BME280;17400;52.392;9.750;2023-03-13T01:20:50;99687.97;;;8.47;100.00
30636;BME280;17400;52.392;9.750;2023-03-13T01:23:18;99683.41;;;8.48;100.00
30636;BME280;17400;52.392;9.750;2023-03-13T01:25:46;99676.75;;;8.50;100.00
30636;BME280;17400;52.392;9.750;2023-03-13T01:28:15;99673.03;;;8.52;100.00
30636;BME280;17400;52.392;9.750;2023-03-13T01:30:42;99673.66;;;8.54;100.00
30636;BME280;17400;52.392;9.750;2023-03-13T01:33:10;99673.03;;;8.52;100.00
30636;BME280;17400;52.392;9.750;2023-03-13T01:35:38;99654.16;;;8.52;100.00
30636;BME280;17400;52.392;9.750;2023-03-13T01:38:06;99662.03;;;8.53;100.00
30636;BME280;17400;52.392;9.750;2023-03-13T01:40:38;99658.53;;;8.53;100.00
30636;BME280;17400;52.392;9.750;2023-03-13T01:43:18;99659.56;;;8.52;100.00
30636;BME280;17400;52.392;9.750;2023-03-13T01:45:59;99646.91;;;8.52;100.00
30636;BME280;17400;52.392;9.750;2023-03-13T01:48:32;99645.03;;;8.53;100.00
30636;BME280;17400;52.392;9.750;2023-03-13T01:51:04;99630.50;;;8.54;100.00
30636;BME280;17400;52.392;9.750;2023-03-13T01:53:35;99629.88;;;8.52;100.00
30636;BME280;17400;52.392;9.750;2023-03-13T01:56:07;99629.66;;;8.53;100.00
30636;BME280;17400;52.392;9.750;2023-03-13T01:58:39;99615.34;;;8.53;100.00
30636;BME280;17400;52.392;9.750;2023-03-13T02:01:08;99612.25;;;8.49;100.00
30636;BME280;17400;52.392;9.750;2023-03-13T02:03:36;99606.84;;;8.49;100.00
30636;BME280;17400;52.392;9.750;2023-03-13T02:06:06;99596.06;;;8.49;100.00
30636;BME280;17400;52.392;9.750;2023-03-13T02:08:37;99590.28;;;8.45;100.00
30636;BME280;17400;52.392;9.750;2023-03-13T02:11:15;99594.59;;;8.40;100.00
30636;BME280;17400;52.392;9.750;2023-03-13T02:13:47;99589.41;;;8.38;100.00
30636;BME280;17400;52.392;9.750;2023-03-13T02:16:16;99586.50;;;8.40;100.00
30636;BME280;17400;52.392;9.750;2023-03-13T02:18:46;99576.97;;;8.37;100.00
30636;BME280;17400;52.392;9.750;2023-03-13T02:21:22;99575.34;;;8.36;100.00
30636;BME280;17400;52.392;9.750;2023-03-13T02:23:59;99558.31;;;8.36;100.00
30636;BME280;17400;52.392;9.750;2023-03-13T02:26:30;99550.44;;;8.34;100.00
30636;BME280;17400;52.392;9.750;2023-03-13T02:28:58;99554.78;;;8.35;100.00
30636;BME280;17400;52.392;9.750;2023-03-13T02:31:26;99545.03;;;8.34;100.00
30636;BME280;17400;52.392;9.750;2023-03-13T02:33:54;99542.56;;;8.32;100.00
30636;BME280;17400;52.392;9.750;2023-03-13T02:36:22;99541.72;;;8.32;100.00
30636;BME280;17400;52.392;9.750;2023-03-13T02:38:54;99529.28;;;8.31;100.00
30636;BME280;17400;52.392;9.750;2023-03-13T02:41:23;99521.00;;;8.32;100.00
30636;BME280;17400;52.392;9.750;2023-03-13T02:43:53;99521.81;;;8.33;100.00
30636;BME280;17400;52.392;9.750;2023-03-13T02:46:21;99509.78;;;8.36;100.00
30636;BME280;17400;52.392;9.750;2023-03-13T02:48:51;99500.44;;;8.31;100.00
30636;BME280;17400;52.392;9.750;2023-03-13T02:51:23;99498.38;;;8.33;100.00
30636;BME280;17400;52.392;9.750;2023-03-13T02:53:54;99486.97;;;8.31;100.00
30636;BME280;17400;52.392;9.750;2023-03-13T02:56:26;99481.56;;;8.31;100.00
30636;BME280;17400;52.392;9.750;2023-03-13T02:58:55;99465.41;;;8.31;100.00
30636;BME280;17400;52.392;9.750;2023-03-13T03:01:23;99457.53;;;8.30;100.00
30636;BME280;17400;52.392;9.750;2023-03-13T03:03:51;99456.91;;;8.28;100.00
30636;BME280;17400;52.392;9.750;2023-03-13T03:06:19;99446.34;;;8.26;100.00
30636;BME280;17400;52.392;9.750;2023-03-13T03:08:47;99439.28;;;8.25;100.00
30636;BME280;17400;52.392;9.750;2023-03-13T03:11:14;99422.06;;;8.26;100.00
30636;BME280;17400;52.392;9.750;2023-03-13T03:13:42;99422.06;;;8.26;100.00
30636;BME280;17400;52.392;9.750;2023-03-13T03:16:13;99409.41;;;8.27;100.00
30636;BME280;17400;52.392;9.750;2023-03-13T03:18:44;99406.09;;;8.25;100.00
30636;BME280;17400;52.392;9.750;2023-03-13T03:21:12;99405.47;;;8.23;100.00
30636;BME280;17400;52.392;9.750;2023-03-13T03:23:40;99399.91;;;8.17;100.00
30636;BME280;17400;52.392;9.750;2023-03-13T03:26:08;99392.44;;;8.20;100.00
30636;BME280;17400;52.392;9.750;2023-03-13T03:28:37;99387.88;;;8.20;100.00
30636;BME280;17400;52.392;9.750;2023-03-13T03:31:06;99376.28;;;8.20;100.00
30636;BME280;17400;52.392;9.750;2023-03-13T03:33:36;99380.00;;;8.18;100.00
30636;BME280;17400;52.392;9.750;2023-03-13T03:36:05;99367.16;;;8.21;100.00
30636;BME280;17400;52.392;9.750;2023-03-13T03:38:34;99362.78;;;8.20;100.00
30636;BME280;17400;52.392;9.750;2023-03-13T03:41:03;99355.94;;;8.17;100.00
30636;BME280;17400;52.392;9.750;2023-03-13T03:43:31;99361.13;;;8.18;100.00
30636;BME280;17400;52.392;9.750;2023-03-13T03:45:59;99350.13;;;8.20;100.00
30636;BME280;17400;52.392;9.750;2023-03-13T03:48:27;99331.47;;;8.18;100.00
30636;BME280;17400;52.392;9.750;2023-03-13T03:50:56;99330.25;;;8.14;100.00
30636;BME280;17400;52.392;9.750;2023-03-13T03:53:24;99320.50;;;8.13;100.00
30636;BME280;17400;52.392;9.750;2023-03-13T03:55:53;99318.44;;;8.15;100.00
30636;BME280;17400;52.392;9.750;2023-03-13T03:58:21;99316.16;;;8.19;100.00
30636;BME280;17400;52.392;9.750;2023-03-13T04:00:49;99312.59;;;8.18;100.00
30636;BME280;17400;52.392;9.750;2023-03-13T04:03:17;99308.66;;;8.21;100.00
30636;BME280;17400;52.392;9.750;2023-03-13T04:05:45;99302.00;;;8.24;100.00
30636;BME280;17400;52.392;9.750;2023-03-13T04:08:14;99300.34;;;8.23;100.00
30636;BME280;17400;52.392;9.750;2023-03-13T04:10:42;99294.13;;;8.22;100.00
30636;BME280;17400;52.392;9.750;2023-03-13T04:13:10;99297.88;;;8.21;100.00
30636;BME280;17400;52.392;9.750;2023-03-13T04:15:38;99303.03;;;8.23;100.00
30636;BME280;17400;52.392;9.750;2023-03-13T04:18:06;99295.63;;;8.18;100.00
30636;BME280;17400;52.392;9.750;2023-03-13T04:20:35;99294.09;;;8.29;100.00
30636;BME280;17400;52.392;9.750;2023-03-13T04:23:03;99283.09;;;8.30;100.00
30636;BME280;17400;52.392;9.750;2023-03-13T04:25:32;99266.50;;;8.27;100.00
30636;BME280;17400;52.392;9.750;2023-03-13T04:27:59;99267.53;;;8.32;100.00
30636;BME280;17400;52.392;9.750;2023-03-13T04:30:27;99261.69;;;8.36;100.00
30636;BME280;17400;52.392;9.750;2023-03-13T04:32:55;99247.63;;;8.33;100.00
30636;BME280;17400;52.392;9.750;2023-03-13T04:35:22;99245.06;;;8.39;100.00
30636;BME280;17400;52.392;9.750;2023-03-13T04:37:50;99242.59;;;8.37;100.00
30636;BME280;17400;52.392;9.750;2023-03-13T04:40:18;99230.38;;;8.34;100.00
30636;BME280;17400;52.392;9.750;2023-03-13T04:42:47;99228.34;;;8.30;100.00
30636;BME280;17400;52.392;9.750;2023-03-13T04:45:14;99229.59;;;8.27;100.00
30636;BME280;17400;52.392;9.750;2023-03-13T04:47:42;99213.66;;;8.26;100.00
30636;BME280;17400;52.392;9.750;2023-03-13T04:50:10;99220.09;;;8.25;100.00
30636;BME280;17400;52.392;9.750;2023-03-13T04:52:38;99209.31;;;8.25;100.00
30636;BME280;17400;52.392;9.750;2023-03-13T04:55:06;99210.34;;;8.24;100.00
30636;BME280;17400;52.392;9.750;2023-03-13T04:57:33;99191.47;;;8.24;100.00
30636;BME280;17400;52.392;9.750;2023-03-13T05:00:03;99187.56;;;8.20;100.00
30636;BME280;17400;52.392;9.750;2023-03-13T05:02:31;99183.44;;;8.17;100.00
30636;BME280;17400;52.392;9.750;2023-03-13T05:04:59;99179.25;;;8.21;100.00
30636;BME280;17400;52.392;9.750;2023-03-13T05:07:27;99168.25;;;8.23;100.00
30636;BME280;17400;52.392;9.750;2023-03-13T05:09:55;99163.69;;;8.23;100.00
30636;BME280;17400;52.392;9.750;2023-03-13T05:12:22;99162.84;;;8.23;100.00
30636;BME280;17400;52.392;9.750;2023-03-13T05:14:50;99167.22;;;8.24;100.00
30636;BME280;17400;52.392;9.750;2023-03-13T05:17:20;99164.28;;;8.25;100.00
30636;BME280;17400;52.392;9.750;2023-03-13T05:19:48;99169.44;;;8.27;100.00
30636;BME280;17400;52.392;9.750;2023-03-13T05:22:15;99158.47;;;8.28;100.00
30636;BME280;17400;52.392;9.750;2023-03-13T05:24:43;99167.75;;;8.32;100.00
30636;BME280;17400;52.392;9.750;2023-03-13T05:27:11;99165.88;;;8.33;100.00
30636;BME280;17400;52.392;9.750;2023-03-13T05:29:38;99166.75;;;8.27;100.00
30636;BME280;17400;52.392;9.750;2023-03-13T05:32:06;99156.38;;;8.30;100.00
30636;BME280;17400;52.392;9.750;2023-03-13T05:34:35;99147.47;;;8.30;100.00
30636;BME280;17400;52.392;9.750;2023-03-13T05:37:03;99148.50;;;8.29;100.00
30636;BME280;17400;52.392;9.750;2023-03-13T05:39:30;99143.50;;;8.32;100.00
30636;BME280;17400;52.392;9.750;2023-03-13T05:41:58;99132.94;;;8.31;100.00
30636;BME280;17400;52.392;9.750;2023-03-13T05:44:26;99141.03;;;8.31;100.00
30636;BME280;17400;52.392;9.750;2023-03-13T05:46:53;99132.94;;;8.31;100.00
30636;BME280;17400;52.392;9.750;2023-03-13T05:49:21;99132.31;;;8.29;100.00
30636;BME280;17400;52.392;9.750;2023-03-13T05:51:50;99122.75;;;8.33;100.00
30636;BME280;17400;52.392;9.750;2023-03-13T05:54:18;99124.41;;;8.34;100.00
30636;BME280;17400;52.392;9.750;2023-03-13T05:56:46;99130.84;;;8.33;100.00
30636;BME280;17400;52.392;9.750;2023-03-13T05:59:15;99113.63;;;8.34;100.00
30636;BME280;17400;52.392;9.750;2023-03-13T06:01:43;99106.34;;;8.34;100.00
30636;BME280;17400;52.392;9.750;2023-03-13T06:04:11;99107.78;;;8.37;100.00
30636;BME280;17400;52.392;9.750;2023-03-13T06:06:38;99115.44;;;8.40;100.00
30636;BME280;17400;52.392;9.750;2023-03-13T06:09:07;99106.28;;;8.41;100.00
30636;BME280;17400;52.392;9.750;2023-03-13T06:11:37;99124.97;;;8.43;100.00
30636;BME280;17400;52.392;9.750;2023-03-13T06:14:07;99113.94;;;8.44;100.00
30636;BME280;17400;52.392;9.750;2023-03-13T06:16:35;99110.25;;;8.45;100.00
30636;BME280;17400;52.392;9.750;2023-03-13T06:19:02;99106.47;;;8.46;100.00
30636;BME280;17400;52.392;9.750;2023-03-13T06:21:30;99105.44;;;8.47;100.00
30636;BME280;17400;52.392;9.750;2023-03-13T06:23:59;99101.47;;;8.50;100.00
30636;BME280;17400;52.392;9.750;2023-03-13T06:26:28;99093.59;;;8.48;100.00
30636;BME280;17400;52.392;9.750;2023-03-13T06:28:56;99089.25;;;8.47;100.00
30636;BME280;17400;52.392;9.750;2023-03-13T06:31:24;99089.84;;;8.49;100.00
30636;BME280;17400;52.392;9.750;2023-03-13T06:33:52;99088.94;;;8.56;100.00
30636;BME280;17400;52.392;9.750;2023-03-13T06:36:20;99097.19;;;8.61;100.00
30636;BME280;17400;52.392;9.750;2023-03-13T06:38:48;99093.44;;;8.62;100.00
30636;BME280;17400;52.392;9.750;2023-03-13T06:41:16;99087.38;;;8.66;100.00
30636;BME280;17400;52.392;9.750;2023-03-13T06:43:45;99085.75;;;8.65;100.00
30636;BME280;17400;52.392;9.750;2023-03-13T06:46:16;99084.63;;;8.73;100.00
30636;BME280;17400;52.392;9.750;2023-03-13T06:48:44;99079.44;;;8.72;100.00
30636;BME280;17400;52.392;9.750;2023-03-13T06:51:13;99077.72;;;8.77;100.00
30636;BME280;17400;52.392;9.750;2023-03-13T06:53:41;99065.06;;;8.78;100.00
30636;BME280;17400;52.392;9.750;2023-03-13T06:56:09;99074.56;;;8.80;100.00
30636;BME280;17400;52.392;9.750;2023-03-13T06:58:37;99076.13;;;8.88;100.00
30636;BME280;17400;52.392;9.750;2023-03-13T07:01:07;99057.84;;;8.90;100.00
30636;BME280;17400;52.392;9.750;2023-03-13T07:03:36;99061.94;;;8.93;100.00
30636;BME280;17400;52.392;9.750;2023-03-13T07:06:04;99060.69;;;8.95;100.00
30636;BME280;17400;52.392;9.750;2023-03-13T07:08:33;99059.88;;;8.95;100.00
30636;BME280;17400;52.392;9.750;2023-03-13T07:11:03;99063.38;;;8.95;100.00
30636;BME280;17400;52.392;9.750;2023-03-13T07:13:31;99063.38;;;8.95;100.00
30636;BME280;17400;52.392;9.750;2023-03-13T07:16:00;99064.00;;;8.97;100.00
30636;BME280;17400;52.392;9.750;2023-03-13T07:18:31;99063.75;;;8.99;100.00
30636;BME280;17400;52.392;9.750;2023-03-13T07:21:01;99064.13;;;9.03;100.00
30636;BME280;17400;52.392;9.750;2023-03-13T07:23:31;99059.13;;;9.06;100.00
30636;BME280;17400;52.392;9.750;2023-03-13T07:26:00;99065.91;;;9.09;100.00
30636;BME280;17400;52.392;9.750;2023-03-13T07:28:29;99064.41;;;9.13;100.00
30636;BME280;17400;52.392;9.750;2023-03-13T07:31:03;99061.25;;;9.16;100.00
30636;BME280;17400;52.392;9.750;2023-03-13T07:33:32;99055.38;;;9.19;100.00
30636;BME280;17400;52.392;9.750;2023-03-13T07:36:00;99054.94;;;9.22;100.00
30636;BME280;17400;52.392;9.750;2023-03-13T07:38:28;99048.25;;;9.25;100.00
30636;BME280;17400;52.392;9.750;2023-03-13T07:40:57;99059.66;;;9.27;100.00
30636;BME280;17400;52.392;9.750;2023-03-13T07:43:25;99076.47;;;9.29;100.00
30636;BME280;17400;52.392;9.750;2023-03-13T07:45:54;99072.25;;;9.33;100.00
30636;BME280;17400;52.392;9.750;2023-03-13T07:48:23;99066.38;;;9.36;100.00
30636;BME280;17400;52.392;9.750;2023-03-13T07:50:53;99081.91;;;9.41;100.00
30636;BME280;17400;52.392;9.750;2023-03-13T07:53:22;99085.78;;;9.45;100.00
30636;BME280;17400;52.392;9.750;2023-03-13T07:55:54;99080.72;;;9.48;100.00
30636;BME280;17400;52.392;9.750;2023-03-13T07:58:23;99083.56;;;9.54;100.00
30636;BME280;17400;52.392;9.750;2023-03-13T08:00:52;99091.38;;;9.62;100.00
30636;BME280;17400;52.392;9.750;2023-03-13T08:03:21;99085.84;;;9.69;100.00
30636;BME280;17400;52.392;9.750;2023-03-13T08:05:58;99092.34;;;9.79;100.00
30636;BME280;17400;52.392;9.750;2023-03-13T08:08:27;99089.66;;;9.91;100.00
30636;BME280;17400;52.392;9.750;2023-03-13T08:10:59;99088.25;;;10.00;100.00
30636;BME280;17400;52.392;9.750;2023-03-13T08:13:28;99084.28;;;10.03;100.00
30636;BME280;17400;52.392;9.750;2023-03-13T08:16:03;99087.66;;;10.10;100.00
30636;BME280;17400;52.392;9.750;2023-03-13T08:18:31;99072.75;;;10.20;100.00
30636;BME280;17400;52.392;9.750;2023-03-13T08:21:03;99079.13;;;10.25;100.00
30636;BME280;17400;52.392;9.750;2023-03-13T08:23:31;99076.88;;;10.34;100.00
30636;BME280;17400;52.392;9.750;2023-03-13T08:26:04;99070.31;;;10.42;100.00
30636;BME280;17400;52.392;9.750;2023-03-13T08:28:32;99073.50;;;10.50;100.00
30636;BME280;17400;52.392;9.750;2023-03-13T08:31:07;99062.78;;;10.56;100.00
30636;BME280;17400;52.392;9.750;2023-03-13T08:33:36;99055.00;;;10.59;100.00
30636;BME280;17400;52.392;9.750;2023-03-13T08:36:15;99065.13;;;10.64;100.00
30636;BME280;17400;52.392;9.750;2023-03-13T08:38:44;99053.56;;;10.69;100.00
30636;BME280;17400;52.392;9.750;2023-03-13T08:41:13;99040.63;;;10.71;100.00
30636;BME280;17400;52.392;9.750;2023-03-13T08:43:42;99054.50;;;10.74;100.00
30636;BME280;17400;52.392;9.750;2023-03-13T08:46:11;99042.13;;;10.78;100.00
30636;BME280;17400;52.392;9.750;2023-03-13T08:48:39;99049.38;;;10.90;100.00
30636;BME280;17400;52.392;9.750;2023-03-13T08:51:09;99039.50;;;10.95;100.00
30636;BME280;17400;52.392;9.750;2023-03-13T08:53:40;99039.34;;;11.02;100.00
30636;BME280;17400;52.392;9.750;2023-03-13T08:56:09;99043.47;;;11.05;100.00
30636;BME280;17400;52.392;9.750;2023-03-13T08:58:38;99031.56;;;11.06;100.00
30636;BME280;17400;52.392;9.750;2023-03-13T09:01:07;99029.44;;;11.08;100.00
30636;BME280;17400;52.392;9.750;2023-03-13T09:03:35;99040.84;;;11.10;100.00
30636;BME280;17400;52.392;9.750;2023-03-13T09:06:04;99034.72;;;11.14;100.00
30636;BME280;17400;52.392;9.750;2023-03-13T09:08:33;99019.13;;;11.22;100.00
30636;BME280;17400;52.392;9.750;2023-03-13T09:11:03;99018.91;;;11.23;100.00
30636;BME280;17400;52.392;9.750;2023-03-13T09:13:33;99008.72;;;11.30;100.00
30636;BME280;17400;52.392;9.750;2023-03-13T09:16:02;99017.84;;;11.41;100.00
30636;BME280;17400;52.392;9.750;2023-03-13T09:18:31;99012.75;;;11.45;100.00
30636;BME280;17400;52.392;9.750;2023-03-13T09:20:59;99005.44;;;11.45;100.00
30636;BME280;17400;52.392;9.750;2023-03-13T09:23:27;99002.81;;;11.50;100.00
30636;BME280;17400;52.392;9.750;2023-03-13T09:25:56;99007.84;;;11.59;100.00
30636;BME280;17400;52.392;9.750;2023-03-13T09:28:25;99000.88;;;11.63;100.00
30636;BME280;17400;52.392;9.750;2023-03-13T09:30:53;98998.16;;;11.63;100.00
30636;BME280;17400;52.392;9.750;2023-03-13T09:33:22;98994.47;;;11.69;100.00
30636;BME280;17400;52.392;9.750;2023-03-13T09:35:53;98997.25;;;11.74;100.00
30636;BME280;17400;52.392;9.750;2023-03-13T09:38:21;99000.22;;;11.73;100.00
30636;BME280;17400;52.392;9.750;2023-03-13T09:40:50;98989.97;;;11.75;100.00
30636;BME280;17400;52.392;9.750;2023-03-13T09:43:39;98995.94;;;11.77;100.00
30636;BME280;17400;52.392;9.750;2023-03-13T09:46:13;98996.75;;;11.77;100.00
30636;BME280;17400;52.392;9.750;2023-03-13T09:48:43;98995.22;;;11.81;100.00
30636;BME280;17400;52.392;9.750;2023-03-13T09:51:15;98987.13;;;11.87;100.00
30636;BME280;17400;52.392;9.750;2023-03-13T09:53:50;98979.31;;;11.90;100.00
30636;BME280;17400;52.392;9.750;2023-03-13T09:56:21;98981.91;;;11.97;100.00
30636;BME280;17400;52.392;9.750;2023-03-13T09:58:58;98981.63;;;11.98;100.00
30636;BME280;17400;52.392;9.750;2023-03-13T10:01:28;98978.13;;;11.98;100.00
30636;BME280;17400;52.392;9.750;2023-03-13T10:04:01;98979.75;;;11.99;100.00
30636;BME280;17400;52.392;9.750;2023-03-13T10:06:34;98989.56;;;12.00;100.00
30636;BME280;17400;52.392;9.750;2023-03-13T10:09:15;98983.38;;;12.05;100.00
30636;BME280;17400;52.392;9.750;2023-03-13T10:11:51;98976.38;;;12.09;100.00
30636;BME280;17400;52.392;9.750;2023-03-13T10:14:29;98987.81;;;12.11;100.00
30636;BME280;17400;52.392;9.750;2023-03-13T10:17:03;98990.84;;;12.14;100.00
30636;BME280;17400;52.392;9.750;2023-03-13T10:19:34;98993.06;;;12.18;100.00
30636;BME280;17400;52.392;9.750;2023-03-13T10:22:11;98988.44;;;12.18;100.00
30636;BME280;17400;52.392;9.750;2023-03-13T10:24:45;98980.28;;;12.18;100.00
30636;BME280;17400;52.392;9.750;2023-03-13T10:27:15;98990.88;;;12.20;100.00
30636;BME280;17400;52.392;9.750;2023-03-13T10:29:44;98984.41;;;12.21;100.00
30636;BME280;17400;52.392;9.750;2023-03-13T10:32:14;98984.72;;;12.24;100.00
30636;BME280;17400;52.392;9.750;2023-03-13T10:34:51;98987.00;;;12.32;100.00
30636;BME280;17400;52.392;9.750;2023-03-13T10:37:21;98972.69;;;12.37;100.00
30636;BME280;17400;52.392;9.750;2023-03-13T10:39:49;98988.22;;;12.42;100.00
30636;BME280;17400;52.392;9.750;2023-03-13T10:42:20;98977.16;;;12.48;100.00
30636;BME280;17400;52.392;9.750;2023-03-13T10:44:57;98986.16;;;12.49;100.00
30636;BME280;17400;52.392;9.750;2023-03-13T10:47:26;98966.94;;;12.56;100.00
30636;BME280;17400;52.392;9.750;2023-03-13T10:49:56;98965.44;;;12.65;100.00
30636;BME280;17400;52.392;9.750;2023-03-13T10:52:33;98969.34;;;12.74;100.00
30636;BME280;17400;52.392;9.750;2023-03-13T10:55:03;98961.25;;;12.79;100.00
30636;BME280;17400;52.392;9.750;2023-03-13T10:57:33;98964.38;;;12.93;100.00
30636;BME280;17400;52.392;9.750;2023-03-13T11:00:26;98952.28;;;13.06;100.00
30636;BME280;17400;52.392;9.750;2023-03-13T11:02:55;98960.97;;;13.08;100.00
30636;BME280;17400;52.392;9.750;2023-03-13T11:05:40;98949.09;;;13.14;100.00
30636;BME280;17400;52.392;9.750;2023-03-13T11:08:20;98957.31;;;13.20;100.00
30636;BME280;17400;52.392;9.750;2023-03-13T11:10:54;98959.50;;;13.23;100.00
30636;BME280;17400;52.392;9.750;2023-03-13T11:13:27;98942.66;;;13.21;100.00
30636;BME280;17400;52.392;9.750;2023-03-13T11:16:10;98945.09;;;13.22;100.00
30636;BME280;17400;52.392;9.750;2023-03-13T11:21:40;98934.06;;;13.34;100.00
30636;BME280;17400;52.392;9.750;2023-03-13T11:24:14;98926.34;;;13.53;100.00
30636;BME280;17400;52.392;9.750;2023-03-13T11:26:51;98930.75;;;13.59;100.00
30636;BME280;17400;52.392;9.750;2023-03-13T11:29:35;98909.25;;;13.58;100.00
30636;BME280;17400;52.392;9.750;2023-03-13T11:32:19;98897.91;;;13.66;100.00
30636;BME280;17400;52.392;9.750;2023-03-13T11:34:51;98893.59;;;13.75;100.00
30636;BME280;17400;52.392;9.750;2023-03-13T11:37:21;98881.94;;;13.80;100.00
30636;BME280;17400;52.392;9.750;2023-03-13T11:39:54;98886.63;;;13.90;100.00
30636;BME280;17400;52.392;9.750;2023-03-13T11:42:40;98882.81;;;13.91;100.00
30636;BME280;17400;52.392;9.750;2023-03-13T11:45:22;98898.88;;;13.92;100.00
30636;BME280;17400;52.392;9.750;2023-03-13T11:48:00;98886.66;;;14.00;100.00
30636;BME280;17400;52.392;9.750;2023-03-13T11:50:36;98872.84;;;14.12;100.00
30636;BME280;17400;52.392;9.750;2023-03-13T11:53:22;98871.28;;;14.26;100.00
30636;BME280;17400;52.392;9.750;2023-03-13T11:56:07;98872.13;;;14.37;100.00
30636;BME280;17400;52.392;9.750;2023-03-13T11:58:53;98870.22;;;14.43;100.00
30636;BME280;17400;52.392;9.750;2023-03-13T12:01:25;98866.16;;;14.50;100.00
30636;BME280;17400;52.392;9.750;2023-03-13T12:03:58;98862.91;;;14.59;100.00
30636;BME280;17400;52.392;9.750;2023-03-13T12:06:29;98872.16;;;14.58;100.00
30636;BME280;17400;52.392;9.750;2023-03-13T12:09:02;98868.38;;;14.59;100.00
30636;BME280;17400;52.392;9.750;2023-03-13T12:11:37;98867.06;;;14.72;100.00
30636;BME280;17400;52.392;9.750;2023-03-13T12:14:12;98856.47;;;15.01;100.00
30636;BME280;17400;52.392;9.750;2023-03-13T12:16:44;98848.84;;;14.98;100.00
30636;BME280;17400;52.392;9.750;2023-03-13T12:19:22;98852.94;;;15.01;100.00
30636;BME280;17400;52.392;9.750;2023-03-13T12:21:56;98846.13;;;15.03;100.00
30636;BME280;17400;52.392;9.750;2023-03-13T12:24:29;98848.28;;;15.11;100.00
30636;BME280;17400;52.392;9.750;2023-03-13T12:27:02;98842.84;;;15.27;100.00
30636;BME280;17400;52.392;9.750;2023-03-13T12:29:41;98831.66;;;15.39;100.00
30636;BME280;17400;52.392;9.750;2023-03-13T12:32:13;98823.13;;;15.61;100.00
30636;BME280;17400;52.392;9.750;2023-03-13T12:34:51;98810.53;;;15.75;99.38
30636;BME280;17400;52.392;9.750;2023-03-13T12:37:25;98809.19;;;15.83;99.14
30636;BME280;17400;52.392;9.750;2023-03-13T12:40:00;98813.84;;;15.72;100.00
30636;BME280;17400;52.392;9.750;2023-03-13T12:42:41;98811.41;;;15.71;99.50
30636;BME280;17400;52.392;9.750;2023-03-13T12:45:15;98807.81;;;15.75;100.00
30636;BME280;17400;52.392;9.750;2023-03-13T12:48:17;98804.00;;;15.87;100.00
30636;BME280;17400;52.392;9.750;2023-03-13T12:50:59;98801.69;;;16.14;95.94
30636;BME280;17400;52.392;9.750;2023-03-13T12:53:45;98795.13;;;16.21;93.75
30636;BME280;17400;52.392;9.750;2023-03-13T12:56:39;98797.78;;;16.26;90.93
30636;BME280;17400;52.392;9.750;2023-03-13T12:59:15;98783.69;;;16.08;90.62
30636;BME280;17400;52.392;9.750;2023-03-13T13:01:46;98794.41;;;15.99;92.47
30636;BME280;17400;52.392;9.750;2023-03-13T13:04:17;98766.22;;;16.14;93.75
30636;BME280;17400;52.392;9.750;2023-03-13T13:06:54;98775.59;;;16.38;93.04
30636;BME280;17400;52.392;9.750;2023-03-13T13:09:25;98772.81;;;16.48;93.66
30636;BME280;17400;52.392;9.750;2023-03-13T13:11:55;98764.00;;;16.56;92.98
30636;BME280;17400;52.392;9.750;2023-03-13T13:17:49;98757.72;;;16.61;87.50
30636;BME280;17400;52.392;9.750;2023-03-13T13:20:33;98755.59;;;16.53;88.40
30636;BME280;17400;52.392;9.750;2023-03-13T13:23:27;98750.31;;;16.61;88.11